createdAt,value
2017-09-27T00:00:09.509Z,53.30
2017-09-27T00:02:36.952Z,45.27
2017-09-27T00:05:04.384Z,48.37
2017-09-27T00:07:31.832Z,46.63
2017-09-27T00:09:59.264Z,53.90
2017-09-27T00:12:26.800Z,47.37
2017-09-27T00:14:54.235Z,44.30
2017-09-27T00:17:21.705Z,42.87
2017-09-27T00:19:49.244Z,43.67
2017-09-27T00:22:17.452Z,47.87
2017-09-27T00:24:44.952Z,41.90
2017-09-27T00:27:12.396Z,49.07
2017-09-27T00:29:41.371Z,44.47
2017-09-27T00:32:08.807Z,47.10
2017-09-27T00:34:36.253Z,49.43
2017-09-27T00:37:03.688Z,46.00
2017-09-27T00:39:31.132Z,44.17
2017-09-27T00:41:58.581Z,46.30
2017-09-27T00:44:26.033Z,45.03
2017-09-27T00:46:53.464Z,41.20
2017-09-27T00:49:20.908Z,44.90
2017-09-27T00:51:48.360Z,48.17
2017-09-27T00:54:15.909Z,46.23
2017-09-27T00:56:43.344Z,46.83
2017-09-27T00:59:10.821Z,43.33
2017-09-27T01:01:39.021Z,43.03
2017-09-27T01:04:06.456Z,44.20
2017-09-27T01:06:33.943Z,47.33
2017-09-27T01:09:01.381Z,47.10
2017-09-27T01:11:28.824Z,44.73
2017-09-27T01:13:56.268Z,46.20
2017-09-27T01:16:23.725Z,52.83
2017-09-27T01:18:51.968Z,48.40
2017-09-27T01:21:19.409Z,45.30
2017-09-27T01:23:46.948Z,43.60
2017-09-27T01:26:14.392Z,44.63
2017-09-27T01:28:41.836Z,47.40
2017-09-27T01:31:09.286Z,47.60
2017-09-27T01:33:36.819Z,47.33
2017-09-27T01:36:04.309Z,48.70
2017-09-27T01:38:31.808Z,42.40
2017-09-27T01:40:59.257Z,50.40
2017-09-27T01:43:26.694Z,44.97
2017-09-27T01:45:54.135Z,43.10
2017-09-27T01:48:21.567Z,44.83
2017-09-27T01:50:49.009Z,51.70
2017-09-27T01:53:16.464Z,46.57
2017-09-27T01:55:43.912Z,42.80
2017-09-27T01:58:11.357Z,47.43
2017-09-27T02:00:38.800Z,43.97
2017-09-27T02:03:06.313Z,49.93
2017-09-27T02:05:33.743Z,42.93
2017-09-27T02:08:01.277Z,41.00
2017-09-27T02:10:28.716Z,43.03
2017-09-27T02:12:56.161Z,44.10
2017-09-27T02:15:23.604Z,50.60
2017-09-27T02:17:51.045Z,43.30
2017-09-27T02:20:18.503Z,40.60
2017-09-27T02:22:46.135Z,42.27
2017-09-27T02:25:13.559Z,45.50
2017-09-27T02:27:41.768Z,40.10
2017-09-27T02:30:09.232Z,45.70
2017-09-27T02:32:36.677Z,41.50
2017-09-27T02:35:04.111Z,44.70
2017-09-27T02:37:31.661Z,45.27
2017-09-27T02:39:59.105Z,44.27
2017-09-27T02:42:26.581Z,45.73
2017-09-27T02:44:54.780Z,40.40
2017-09-27T02:47:22.253Z,37.70
2017-09-27T02:49:49.787Z,39.37
2017-09-27T02:52:17.314Z,40.67
2017-09-27T02:54:44.785Z,36.17
2017-09-27T02:57:12.424Z,38.57
2017-09-27T02:59:39.867Z,40.47
2017-09-27T03:02:07.311Z,38.80
2017-09-27T03:04:34.752Z,40.00
2017-09-27T03:09:35.284Z,38.53
2017-09-27T03:12:02.728Z,47.20
2017-09-27T03:14:30.256Z,38.83
2017-09-27T03:16:57.699Z,40.80
2017-09-27T03:19:25.220Z,38.13
2017-09-27T03:21:52.764Z,38.63
2017-09-27T03:24:20.228Z,38.97
2017-09-27T03:26:47.668Z,34.00
2017-09-27T03:29:15.117Z,33.23
2017-09-27T03:31:42.552Z,34.90
2017-09-27T03:34:10.006Z,38.57
2017-09-27T03:36:37.440Z,37.70
2017-09-27T03:39:04.990Z,35.63
2017-09-27T03:41:32.427Z,33.17
2017-09-27T03:43:59.978Z,36.20
2017-09-27T03:46:27.422Z,32.63
2017-09-27T03:48:54.965Z,34.73
2017-09-27T03:51:22.404Z,34.90
2017-09-27T03:53:49.943Z,31.03
2017-09-27T03:56:17.375Z,35.10
2017-09-27T03:58:44.820Z,37.77
2017-09-27T04:01:12.299Z,33.50
2017-09-27T04:03:40.587Z,37.40
2017-09-27T04:06:08.031Z,39.93
2017-09-27T04:08:35.472Z,36.57
2017-09-27T04:11:02.917Z,36.70
2017-09-27T04:13:30.451Z,35.13
2017-09-27T04:15:58.657Z,38.73
2017-09-27T04:18:26.110Z,36.23
2017-09-27T04:20:53.551Z,32.73
2017-09-27T04:23:21.005Z,39.43
2017-09-27T04:25:48.437Z,31.87
2017-09-27T04:28:15.997Z,38.57
2017-09-27T04:30:43.439Z,37.37
2017-09-27T04:33:10.879Z,33.93
2017-09-27T04:35:39.135Z,34.20
2017-09-27T04:38:06.690Z,33.70
2017-09-27T04:40:34.140Z,31.13
2017-09-27T04:43:01.584Z,31.37
2017-09-27T04:45:29.798Z,36.70
2017-09-27T04:47:57.237Z,27.00
2017-09-27T04:50:24.821Z,33.77
2017-09-27T04:52:52.361Z,33.87
2017-09-27T04:55:19.908Z,32.67
2017-09-27T04:57:47.446Z,33.50
2017-09-27T05:00:14.990Z,37.03
2017-09-27T05:02:42.429Z,33.03
2017-09-27T05:05:09.873Z,29.33
2017-09-27T05:07:37.352Z,32.03
2017-09-27T05:10:05.558Z,28.40
2017-09-27T05:12:33.000Z,31.40
2017-09-27T05:15:00.452Z,32.70
2017-09-27T05:17:27.987Z,31.60
2017-09-27T05:19:55.426Z,30.83
2017-09-27T05:22:22.895Z,38.27
2017-09-27T05:24:50.340Z,34.97
2017-09-27T05:27:17.796Z,33.87
2017-09-27T05:29:45.244Z,31.23
2017-09-27T05:32:12.675Z,32.23
2017-09-27T05:34:40.208Z,30.33
2017-09-27T05:37:07.719Z,30.50
2017-09-27T05:39:35.196Z,31.70
2017-09-27T05:42:02.643Z,31.90
2017-09-27T05:44:30.905Z,35.70
2017-09-27T05:46:58.361Z,35.10
2017-09-27T05:49:26.580Z,32.90
2017-09-27T05:51:54.139Z,33.73
2017-09-27T05:54:21.603Z,39.87
2017-09-27T05:56:49.051Z,32.33
2017-09-27T05:59:16.506Z,33.73
2017-09-27T06:01:43.941Z,33.37
2017-09-27T06:04:12.196Z,31.93
2017-09-27T06:06:39.656Z,29.20
2017-09-27T06:09:07.867Z,29.77
2017-09-27T06:11:35.313Z,36.23
2017-09-27T06:14:02.767Z,35.07
2017-09-27T06:16:30.241Z,35.33
2017-09-27T06:18:57.766Z,33.73
2017-09-27T06:21:25.237Z,26.53
2017-09-27T06:23:53.433Z,28.93
2017-09-27T06:26:20.871Z,30.10
2017-09-27T06:28:48.317Z,30.67
2017-09-27T06:31:15.772Z,35.27
2017-09-27T06:33:43.213Z,37.00
2017-09-27T06:36:10.656Z,40.10
2017-09-27T06:38:38.125Z,41.70
2017-09-27T06:41:05.560Z,48.43
2017-09-27T06:43:33.017Z,45.07
2017-09-27T06:46:01.268Z,39.77
2017-09-27T06:48:28.715Z,40.53
2017-09-27T06:50:56.152Z,45.10
2017-09-27T06:53:23.588Z,46.70
2017-09-27T06:55:51.032Z,42.27
2017-09-27T06:58:18.575Z,54.43
2017-09-27T07:00:46.017Z,78.20
2017-09-27T07:03:13.462Z,47.60
2017-09-27T07:05:40.904Z,42.10
2017-09-27T07:08:08.383Z,41.53
2017-09-27T07:10:36.650Z,43.07
2017-09-27T07:13:04.093Z,46.50
2017-09-27T07:15:31.532Z,39.83
2017-09-27T07:17:59.753Z,43.50
2017-09-27T07:20:27.196Z,48.17
2017-09-27T07:22:54.648Z,37.80
2017-09-27T07:25:22.085Z,40.87
2017-09-27T07:27:49.532Z,43.47
2017-09-27T07:30:16.971Z,35.57
2017-09-27T07:32:44.415Z,41.70
2017-09-27T07:35:11.955Z,41.67
2017-09-27T07:37:39.433Z,41.80
2017-09-27T07:40:07.639Z,39.77
2017-09-27T07:42:35.180Z,33.23
2017-09-27T07:45:02.618Z,36.13
2017-09-27T07:47:30.062Z,38.17
2017-09-27T07:49:57.504Z,46.77
2017-09-27T07:52:24.969Z,39.07
2017-09-27T07:54:52.429Z,31.97
2017-09-27T07:57:19.864Z,33.60
2017-09-27T07:59:47.308Z,32.57
2017-09-27T08:02:15.629Z,36.33
2017-09-27T08:04:43.072Z,32.73
2017-09-27T08:07:10.556Z,35.33
2017-09-27T08:09:38.101Z,33.83
2017-09-27T08:12:05.545Z,43.87
2017-09-27T08:14:33.083Z,35.47
2017-09-27T08:17:00.533Z,34.03
2017-09-27T08:19:28.071Z,32.57
2017-09-27T08:21:55.631Z,35.03
2017-09-27T08:24:23.160Z,32.30
2017-09-27T08:26:50.709Z,31.80
2017-09-27T08:29:18.165Z,33.53
2017-09-27T08:31:45.608Z,28.20
2017-09-27T08:34:13.826Z,36.00
2017-09-27T08:36:41.270Z,33.60
2017-09-27T08:39:08.736Z,32.43
2017-09-27T08:41:36.280Z,31.90
2017-09-27T08:44:03.719Z,32.13
2017-09-27T08:46:31.169Z,32.40
2017-09-27T08:48:58.617Z,34.40
2017-09-27T08:51:26.155Z,32.67
2017-09-27T08:53:53.695Z,29.20
2017-09-27T08:56:21.246Z,29.57
2017-09-27T08:58:48.792Z,32.00
2017-09-27T09:01:16.240Z,27.47
2017-09-27T09:03:43.777Z,29.90
2017-09-27T09:06:11.232Z,28.20
2017-09-27T09:08:38.660Z,29.27
2017-09-27T09:11:06.160Z,28.30
2017-09-27T09:13:33.600Z,28.70
2017-09-27T09:16:01.089Z,28.00
2017-09-27T09:18:28.528Z,27.73
2017-09-27T09:20:56.082Z,27.50
2017-09-27T09:23:23.513Z,27.33
2017-09-27T09:25:51.064Z,29.33
2017-09-27T09:28:18.491Z,28.87
2017-09-27T09:30:45.929Z,26.37
2017-09-27T09:33:13.372Z,27.27
2017-09-27T09:35:40.842Z,25.17
2017-09-27T09:38:08.458Z,26.03
2017-09-27T09:40:35.926Z,25.50
2017-09-27T09:43:03.473Z,27.53
2017-09-27T09:45:31.667Z,24.13
2017-09-27T09:47:59.183Z,24.80
2017-09-27T09:50:28.239Z,28.60
2017-09-27T09:52:55.687Z,24.43
2017-09-27T09:55:23.123Z,28.80
2017-09-27T09:57:50.586Z,29.13
2017-09-27T10:00:18.031Z,24.47
2017-09-27T10:02:45.567Z,22.93
2017-09-27T10:05:13.013Z,21.70
2017-09-27T10:07:40.451Z,20.03
2017-09-27T10:10:07.891Z,20.93
2017-09-27T10:12:35.339Z,22.73
2017-09-27T10:15:02.787Z,22.23
2017-09-27T10:17:30.987Z,17.70
2017-09-27T10:19:58.493Z,20.70
2017-09-27T10:22:25.932Z,18.07
2017-09-27T10:24:53.477Z,19.43
2017-09-27T10:27:21.680Z,18.77
2017-09-27T10:29:49.112Z,16.83
2017-09-27T10:32:17.307Z,17.10
2017-09-27T10:34:44.757Z,19.83
2017-09-27T10:37:12.212Z,11.93
2017-09-27T10:39:39.640Z,14.37
2017-09-27T10:42:07.073Z,16.70
2017-09-27T10:44:34.531Z,13.80
2017-09-27T10:47:01.968Z,16.27
2017-09-27T10:49:29.431Z,17.20
2017-09-27T10:51:56.873Z,18.30
2017-09-27T10:54:24.436Z,15.30
2017-09-27T10:56:51.960Z,17.63
2017-09-27T10:59:19.399Z,18.10
2017-09-27T11:01:46.848Z,17.63
2017-09-27T11:04:15.052Z,17.87
2017-09-27T11:06:43.248Z,17.20
2017-09-27T11:09:10.716Z,18.23
2017-09-27T11:11:38.249Z,19.57
2017-09-27T11:14:05.660Z,18.80
2017-09-27T11:16:33.088Z,14.73
2017-09-27T11:19:00.549Z,15.73
2017-09-27T11:21:27.980Z,16.40
2017-09-27T11:23:55.417Z,14.37
2017-09-27T11:26:22.907Z,13.47
2017-09-27T11:28:50.340Z,15.57
2017-09-27T11:31:17.779Z,14.77
2017-09-27T11:33:45.264Z,15.13
2017-09-27T11:36:13.502Z,15.90
2017-09-27T11:38:40.950Z,15.67
2017-09-27T11:41:08.488Z,15.37
2017-09-27T11:43:35.959Z,12.83
2017-09-27T11:46:04.165Z,14.23
2017-09-27T11:48:31.641Z,12.37
2017-09-27T11:50:59.122Z,12.73
2017-09-27T11:53:27.333Z,12.47
2017-09-27T11:55:54.786Z,13.87
2017-09-27T11:58:22.223Z,12.47
2017-09-27T12:00:49.694Z,12.97
2017-09-27T12:03:17.927Z,12.47
2017-09-27T12:05:45.469Z,13.70
2017-09-27T12:08:12.925Z,11.83
2017-09-27T12:10:40.364Z,11.90
2017-09-27T12:13:07.798Z,13.60
2017-09-27T12:15:35.351Z,12.67
2017-09-27T12:18:02.777Z,11.87
2017-09-27T12:20:30.219Z,11.20
2017-09-27T12:22:58.214Z,11.90
2017-09-27T12:25:25.631Z,12.63
2017-09-27T12:27:53.071Z,13.30
2017-09-27T12:30:20.503Z,12.47
2017-09-27T12:32:48.051Z,11.20
2017-09-27T12:35:15.493Z,10.40
2017-09-27T12:37:42.933Z,11.10
2017-09-27T12:40:10.366Z,10.73
2017-09-27T12:42:37.799Z,8.30
2017-09-27T12:45:05.264Z,10.27
2017-09-27T12:47:32.752Z,8.00
2017-09-27T12:50:00.967Z,7.67
2017-09-27T12:52:28.728Z,5.60
2017-09-27T12:54:57.674Z,5.40
2017-09-27T12:57:25.124Z,5.20
2017-09-27T12:59:52.553Z,5.60
2017-09-27T13:02:19.993Z,6.53
2017-09-27T13:04:47.419Z,6.53
2017-09-27T13:07:14.860Z,5.33
2017-09-27T13:09:42.284Z,5.20
2017-09-27T13:12:10.512Z,7.00
2017-09-27T13:14:37.949Z,6.40
2017-09-27T13:17:05.364Z,7.60
2017-09-27T13:19:32.795Z,11.30
2017-09-27T13:22:00.224Z,9.03
2017-09-27T13:24:27.847Z,7.70
2017-09-27T13:26:56.057Z,7.83
2017-09-27T13:29:23.488Z,7.33
2017-09-27T13:31:50.913Z,6.70
2017-09-27T13:34:18.425Z,6.83
2017-09-27T13:36:46.694Z,6.20
2017-09-27T13:39:14.892Z,6.47
2017-09-27T13:41:42.385Z,6.33
2017-09-27T13:44:09.820Z,5.57
2017-09-27T13:46:37.273Z,7.23
2017-09-27T13:49:04.813Z,6.40
2017-09-27T13:51:32.236Z,5.57
2017-09-27T13:53:59.705Z,5.50
2017-09-27T13:56:27.169Z,5.83
2017-09-27T13:58:55.371Z,6.17
2017-09-27T14:01:22.801Z,6.37
2017-09-27T14:03:50.250Z,5.33
2017-09-27T14:06:17.672Z,4.20
2017-09-27T14:08:45.167Z,5.43
2017-09-27T14:11:12.625Z,4.20
2017-09-27T14:13:40.880Z,4.30
2017-09-27T14:16:08.308Z,4.37
2017-09-27T14:18:35.737Z,4.53
2017-09-27T14:21:03.693Z,5.10
2017-09-27T14:23:31.155Z,4.47
2017-09-27T14:25:59.423Z,5.20
2017-09-27T14:28:28.357Z,4.13
2017-09-27T14:30:55.869Z,4.73
2017-09-27T14:33:24.114Z,4.10
2017-09-27T14:35:51.644Z,5.90
2017-09-27T14:38:19.082Z,5.53
2017-09-27T14:40:46.522Z,5.07
2017-09-27T14:43:13.985Z,4.47
2017-09-27T14:45:41.422Z,4.80
2017-09-27T14:48:09.681Z,5.37
2017-09-27T14:50:37.224Z,6.30
2017-09-27T14:53:04.671Z,5.60
2017-09-27T14:55:33.616Z,5.27
2017-09-27T14:58:01.081Z,4.43
2017-09-27T15:00:28.525Z,6.30
2017-09-27T15:02:55.960Z,4.93
2017-09-27T15:05:23.516Z,6.07
2017-09-27T15:07:51.014Z,5.07
2017-09-27T15:10:18.463Z,6.83
2017-09-27T15:12:45.891Z,6.53
2017-09-27T15:15:13.389Z,5.70
2017-09-27T15:17:40.829Z,5.30
2017-09-27T15:20:08.268Z,4.80
2017-09-27T15:22:35.725Z,5.67
2017-09-27T15:25:03.188Z,4.97
2017-09-27T15:27:31.476Z,4.80
2017-09-27T15:29:58.919Z,4.93
2017-09-27T15:32:26.409Z,4.80
2017-09-27T15:34:53.835Z,5.70
2017-09-27T15:37:21.267Z,4.67
2017-09-27T15:39:48.812Z,5.53
2017-09-27T15:42:16.242Z,9.30
2017-09-27T15:44:43.673Z,10.83
2017-09-27T15:47:11.111Z,10.07
2017-09-27T15:49:38.541Z,6.93
2017-09-27T15:52:06.745Z,6.00
2017-09-27T15:54:34.190Z,7.73
2017-09-27T15:57:01.753Z,6.30
2017-09-27T15:59:29.331Z,6.40
2017-09-27T16:01:57.532Z,6.23
2017-09-27T16:04:24.957Z,5.60
2017-09-27T16:06:52.384Z,4.90
2017-09-27T16:09:19.881Z,6.00
2017-09-27T16:11:47.328Z,11.70
2017-09-27T16:14:14.768Z,11.40
2017-09-27T16:16:42.236Z,13.97
2017-09-27T16:19:09.724Z,14.17
2017-09-27T16:21:37.161Z,14.20
2017-09-27T16:24:04.619Z,14.03
2017-09-27T16:26:32.102Z,13.27
2017-09-27T16:28:59.564Z,14.57
2017-09-27T16:31:27.803Z,14.80
2017-09-27T16:33:55.571Z,15.10
2017-09-27T16:36:23.806Z,14.23
2017-09-27T16:38:51.251Z,16.53
2017-09-27T16:41:18.690Z,18.00
2017-09-27T16:43:46.139Z,20.10
2017-09-27T16:46:13.671Z,17.47
2017-09-27T16:48:41.134Z,16.73
2017-09-27T16:51:08.575Z,15.80
2017-09-27T16:53:36.016Z,18.17
2017-09-27T16:56:03.543Z,15.67
2017-09-27T16:58:31.001Z,17.40
2017-09-27T17:00:59.249Z,16.03
2017-09-27T17:03:26.689Z,16.03
2017-09-27T17:05:54.315Z,16.63
2017-09-27T17:08:21.741Z,15.40
2017-09-27T17:10:49.199Z,17.73
2017-09-27T17:13:16.628Z,16.87
2017-09-27T17:15:44.256Z,16.63
2017-09-27T17:18:11.909Z,16.60
2017-09-27T17:20:39.359Z,21.93
2017-09-27T17:23:06.796Z,15.80
2017-09-27T17:25:34.353Z,16.07
2017-09-27T17:28:01.784Z,18.67
2017-09-27T17:30:29.225Z,18.43
2017-09-27T17:32:56.797Z,20.60
2017-09-27T17:35:24.226Z,20.87
2017-09-27T17:37:51.655Z,19.97
2017-09-27T17:40:19.147Z,19.00
2017-09-27T17:42:46.615Z,20.30
2017-09-27T17:45:14.827Z,18.17
2017-09-27T17:47:42.251Z,24.07
2017-09-27T17:50:09.694Z,18.20
2017-09-27T17:52:37.193Z,18.43
2017-09-27T17:55:05.459Z,18.00
2017-09-27T17:57:32.912Z,18.40
2017-09-27T18:00:01.108Z,23.63
2017-09-27T18:02:28.564Z,19.87
2017-09-27T18:04:57.772Z,18.93
2017-09-27T18:10:39.686Z,23.37
2017-09-27T18:13:15.328Z,22.23
2017-09-27T18:18:43.200Z,23.93
2017-09-27T18:21:10.653Z,22.90
2017-09-27T18:23:38.088Z,17.70
2017-09-27T18:26:05.539Z,20.07
2017-09-27T18:28:32.979Z,21.03
2017-09-27T18:31:00.598Z,21.33
2017-09-27T18:33:28.177Z,19.37
2017-09-27T18:35:55.684Z,19.17
2017-09-27T18:38:23.149Z,19.20
2017-09-27T18:40:50.608Z,20.30
2017-09-27T18:43:18.060Z,17.93
2017-09-27T18:45:46.820Z,18.30
2017-09-27T18:48:14.273Z,18.33
2017-09-27T18:50:41.708Z,20.20
2017-09-27T18:53:09.156Z,20.00
2017-09-27T18:55:36.601Z,22.10
2017-09-27T18:58:04.132Z,23.07
2017-09-27T19:00:31.578Z,23.90
2017-09-27T19:02:59.021Z,20.03
2017-09-27T19:05:26.462Z,20.53
2017-09-27T19:07:54.005Z,22.47
2017-09-27T19:10:21.439Z,22.27
2017-09-27T19:12:48.880Z,22.87
2017-09-27T19:15:16.428Z,23.50
2017-09-27T19:17:43.881Z,26.33
2017-09-27T19:20:11.328Z,22.27
2017-09-27T19:22:38.873Z,23.30
2017-09-27T19:25:06.311Z,26.70
2017-09-27T19:27:33.787Z,23.13
2017-09-27T19:30:01.997Z,21.67
2017-09-27T19:32:29.503Z,23.97
2017-09-27T19:34:57.701Z,21.63
2017-09-27T19:37:25.165Z,23.50
2017-09-27T19:39:52.719Z,19.30
2017-09-27T19:42:20.157Z,20.07
2017-09-27T19:44:47.696Z,17.97
2017-09-27T19:47:15.137Z,19.03
2017-09-27T19:49:42.585Z,25.10
2017-09-27T19:52:10.138Z,21.10
2017-09-27T19:54:37.584Z,18.57
2017-09-27T19:57:05.056Z,21.53
2017-09-27T19:59:32.584Z,17.97
2017-09-27T20:02:00.801Z,20.87
2017-09-27T20:04:28.300Z,19.83
2017-09-27T20:06:55.740Z,18.40
2017-09-27T20:09:23.181Z,19.20
2017-09-27T20:11:50.644Z,19.23
2017-09-27T20:14:18.075Z,18.43
2017-09-27T20:16:45.585Z,18.60
2017-09-27T20:19:13.137Z,21.23
2017-09-27T20:21:40.592Z,19.87
2017-09-27T20:24:08.806Z,19.30
2017-09-27T20:26:36.252Z,17.80
2017-09-27T20:29:03.716Z,18.53
2017-09-27T20:31:31.157Z,18.63
2017-09-27T20:33:58.700Z,20.10
2017-09-27T20:36:26.152Z,17.20
2017-09-27T20:38:54.468Z,20.10
2017-09-27T20:41:21.907Z,27.67
2017-09-27T20:43:49.344Z,20.60
2017-09-27T20:46:16.792Z,20.50
2017-09-27T20:48:44.240Z,21.87
2017-09-27T20:51:11.693Z,20.97
2017-09-27T20:53:39.164Z,20.70
2017-09-27T20:56:06.607Z,18.60
2017-09-27T20:58:34.057Z,19.17
2017-09-27T21:01:01.554Z,19.20
2017-09-27T21:03:28.988Z,18.07
2017-09-27T21:05:56.423Z,20.13
2017-09-27T21:08:24.557Z,18.83
2017-09-27T21:10:52.769Z,24.47
2017-09-27T21:13:20.214Z,21.53
2017-09-27T21:15:47.661Z,27.87
2017-09-27T21:18:15.104Z,34.57
2017-09-27T21:20:42.560Z,36.27
2017-09-27T21:23:10.037Z,40.07
2017-09-27T21:25:38.228Z,34.60
2017-09-27T21:28:05.683Z,34.10
2017-09-27T21:30:33.156Z,38.07
2017-09-27T21:33:00.596Z,48.17
2017-09-27T21:35:28.032Z,43.20
2017-09-27T21:37:55.480Z,32.77
2017-09-27T21:40:23.038Z,24.07
2017-09-27T21:42:50.577Z,25.90
2017-09-27T21:45:18.015Z,26.20
2017-09-27T21:47:45.457Z,30.20
2017-09-27T21:50:13.022Z,24.17
2017-09-27T21:52:40.506Z,26.80
2017-09-27T21:55:07.996Z,23.47
2017-09-27T21:57:35.433Z,20.93
2017-09-27T22:00:03.021Z,17.23
2017-09-27T22:02:30.564Z,18.47
2017-09-27T22:04:58.012Z,21.10
2017-09-27T22:07:25.445Z,17.47
2017-09-27T22:09:52.888Z,19.40
2017-09-27T22:12:20.393Z,22.77
2017-09-27T22:14:47.836Z,19.43
2017-09-27T22:17:15.286Z,19.03
2017-09-27T22:19:42.837Z,19.23
2017-09-27T22:22:10.376Z,20.97
2017-09-27T22:24:37.824Z,21.83
2017-09-27T22:27:05.272Z,22.67
2017-09-27T22:29:32.723Z,26.03
2017-09-27T22:32:01.039Z,24.77
2017-09-27T22:34:28.467Z,21.90
2017-09-27T22:36:55.913Z,19.33
2017-09-27T22:39:23.355Z,26.20
2017-09-27T22:41:50.828Z,44.83
2017-09-27T22:44:18.382Z,29.57
2017-09-27T22:46:45.819Z,25.60
2017-09-27T22:49:13.275Z,22.67
2017-09-27T22:51:40.884Z,24.03
2017-09-27T22:54:08.357Z,24.17
2017-09-27T22:56:35.901Z,20.90
2017-09-27T22:59:03.346Z,19.23
2017-09-27T23:01:30.888Z,20.83
2017-09-27T23:03:58.459Z,19.50
2017-09-27T23:06:26.668Z,19.80
2017-09-27T23:08:54.111Z,18.30
2017-09-27T23:11:21.552Z,18.40
2017-09-27T23:13:48.997Z,19.47
2017-09-27T23:16:16.464Z,19.67
2017-09-27T23:18:44.009Z,17.90
2017-09-27T23:21:11.452Z,19.30
2017-09-27T23:23:39.008Z,19.43
2017-09-27T23:26:07.265Z,18.60
2017-09-27T23:28:36.208Z,18.73
2017-09-27T23:31:03.714Z,22.77
2017-09-27T23:33:31.932Z,16.57
2017-09-27T23:35:59.480Z,18.00
2017-09-27T23:38:27.024Z,17.27
2017-09-27T23:40:54.463Z,22.87
2017-09-27T23:43:21.907Z,17.80
2017-09-27T23:45:49.447Z,16.40
2017-09-27T23:48:16.895Z,18.43
2017-09-27T23:50:44.359Z,18.13
2017-09-27T23:53:12.560Z,16.80
2017-09-27T23:55:40.008Z,18.47
2017-09-27T23:58:07.442Z,17.07
